Time;durP1;ratioP1;P1;durP2;ratioP2;P2;SDS_P1;SDS_P2;PMS_P1;PMS_P2;Temp;Humidity;BMP_temperature;BMP_pressure;BME280_temperature;BME280_humidity;BME280_pressure;Samples;Min_cycle;Max_cycle;Signal;HPM_P1;HPM_P2
2023/01/23 00:00:39;;;;;;;14.07;6.40;;;2.70;99.90;;;;;;5115230;27;20039;-89
2023/01/23 00:03:05;;;;;;;14.82;6.72;;;2.70;99.90;;;;;;5114731;27;20055;-89
2023/01/23 00:05:31;;;;;;;13.13;6.65;;;2.70;99.90;;;;;;5114522;27;20591;-89
2023/01/23 00:07:56;;;;;;;14.70;7.28;;;2.80;99.90;;;;;;5136504;27;20046;-89
2023/01/23 00:10:22;;;;;;;20.20;6.93;;;2.70;99.90;;;;;;5133041;27;20162;-89
2023/01/23 00:12:48;;;;;;;17.08;7.20;;;2.70;99.90;;;;;;5111239;27;20042;-89
2023/01/23 00:15:14;;;;;;;14.40;6.68;;;2.70;99.90;;;;;;5133281;27;20096;-89
2023/01/23 00:17:40;;;;;;;12.60;6.82;;;2.80;99.90;;;;;;5133042;27;20051;-89
2023/01/23 00:20:08;;;;;;;13.63;7.40;;;2.70;99.90;;;;;;5098061;27;20834;-89
2023/01/23 00:22:34;;;;;;;16.13;7.22;;;2.70;99.90;;;;;;5113773;27;20039;-89
2023/01/23 00:24:59;;;;;;;13.00;6.78;;;2.70;99.90;;;;;;5112460;27;20062;-89
2023/01/23 00:27:25;;;;;;;12.95;6.32;;;2.70;99.90;;;;;;5131679;27;20114;-89
2023/01/23 00:29:54;;;;;;;12.57;6.15;;;2.80;99.90;;;;;;5114363;27;20759;-89
2023/01/23 00:32:20;;;;;;;16.73;7.78;;;2.70;99.90;;;;;;5114188;27;20043;-89
2023/01/23 00:34:45;;;;;;;17.83;6.75;;;2.70;99.90;;;;;;5132401;27;20035;-89
2023/01/23 00:37:11;;;;;;;13.93;7.10;;;2.70;99.90;;;;;;5120478;27;20050;-89
2023/01/23 00:39:37;;;;;;;15.43;7.40;;;2.70;99.90;;;;;;5136109;27;20043;-89
2023/01/23 00:42:02;;;;;;;12.77;6.97;;;2.80;99.90;;;;;;5126183;27;20031;-90
2023/01/23 00:44:29;;;;;;;15.30;7.35;;;2.80;99.90;;;;;;5132427;27;20122;-90
2023/01/23 00:46:55;;;;;;;13.48;7.25;;;2.70;99.90;;;;;;5114554;27;20126;-89
2023/01/23 00:49:21;;;;;;;14.55;6.97;;;2.80;99.90;;;;;;5135483;27;20046;-88
2023/01/23 00:51:47;;;;;;;15.43;7.78;;;2.80;99.90;;;;;;5135423;27;20031;-89
2023/01/23 00:54:13;;;;;;;16.23;7.65;;;2.80;99.90;;;;;;5115098;27;20070;-89
2023/01/23 00:56:39;;;;;;;13.90;7.05;;;2.70;99.90;;;;;;5153865;27;20301;-89
2023/01/23 00:59:04;;;;;;;12.50;7.38;;;2.80;99.90;;;;;;5134390;27;20047;-89
2023/01/23 01:01:31;;;;;;;15.18;7.43;;;2.80;99.90;;;;;;5114702;27;20384;-90
2023/01/23 01:03:58;;;;;;;13.23;7.30;;;2.80;99.90;;;;;;5131970;27;20096;-89
2023/01/23 01:06:25;;;;;;;14.68;7.20;;;2.70;99.90;;;;;;5113232;27;20039;-89
2023/01/23 01:08:50;;;;;;;15.27;7.15;;;2.80;99.90;;;;;;5108977;27;20124;-90
2023/01/23 01:11:16;;;;;;;16.45;7.55;;;2.80;99.90;;;;;;5115080;27;20038;-89
2023/01/23 01:13:43;;;;;;;16.38;7.50;;;2.80;99.90;;;;;;5120523;27;20047;-89
2023/01/23 01:16:09;;;;;;;14.13;7.50;;;2.80;99.90;;;;;;5120928;27;20074;-89
2023/01/23 01:18:36;;;;;;;18.52;7.50;;;2.80;99.90;;;;;;5140176;27;20042;-89
2023/01/23 01:21:07;;;;;;;13.60;7.38;;;2.80;99.90;;;;;;5121207;27;20039;-89
2023/01/23 01:23:33;;;;;;;14.57;6.55;;;2.80;99.90;;;;;;5126193;27;20055;-89
2023/01/23 01:25:59;;;;;;;16.45;7.88;;;2.80;99.90;;;;;;5130656;27;20049;-89
2023/01/23 01:28:29;;;;;;;15.70;7.78;;;2.80;99.90;;;;;;5126691;27;20047;-88
2023/01/23 01:30:55;;;;;;;16.00;8.20;;;2.80;99.90;;;;;;5150471;27;21025;-89
2023/01/23 01:33:23;;;;;;;17.38;9.23;;;2.80;99.90;;;;;;5131210;27;20023;-89
2023/01/23 01:35:48;;;;;;;15.55;7.90;;;2.80;99.90;;;;;;5129276;27;20035;-88
2023/01/23 01:38:14;;;;;;;14.85;7.07;;;2.80;99.90;;;;;;5147721;27;20057;-89
2023/01/23 01:40:40;;;;;;;16.50;8.27;;;2.70;99.90;;;;;;5149838;27;20041;-89
2023/01/23 01:43:16;;;;;;;14.35;7.93;;;2.80;99.90;;;;;;5128040;27;20034;-89
2023/01/23 01:46:23;;;;;;;15.40;8.52;;;2.70;99.90;;;;;;5110099;27;20047;-89
2023/01/23 01:49:20;;;;;;;15.85;7.88;;;2.70;99.90;;;;;;5120829;27;20124;-89
2023/01/23 01:51:51;;;;;;;17.75;8.32;;;2.70;99.90;;;;;;5130645;27;20050;-89
2023/01/23 01:54:35;;;;;;;17.98;8.57;;;2.80;99.90;;;;;;5110483;27;20043;-89
2023/01/23 01:57:14;;;;;;;15.10;8.07;;;2.70;99.90;;;;;;5131090;27;20063;-89
2023/01/23 01:59:49;;;;;;;15.50;7.90;;;2.70;99.90;;;;;;5127663;27;20085;-89
2023/01/23 02:02:21;;;;;;;15.35;8.38;;;2.70;99.90;;;;;;5112881;27;20047;-90
2023/01/23 02:04:52;;;;;;;15.98;8.73;;;2.70;99.90;;;;;;5126367;27;20050;-89
2023/01/23 02:07:40;;;;;;;15.50;7.95;;;2.70;99.90;;;;;;5109964;27;20074;-90
2023/01/23 02:10:07;;;;;;;17.50;8.77;;;2.70;99.90;;;;;;5126660;27;20126;-90
2023/01/23 02:12:34;;;;;;;17.63;8.70;;;2.70;99.90;;;;;;5128530;27;20064;-89
2023/01/23 02:15:01;;;;;;;15.18;8.00;;;2.80;99.90;;;;;;5110203;27;20056;-89
2023/01/23 02:17:29;;;;;;;17.50;8.73;;;2.70;99.90;;;;;;5114114;27;20091;-89
2023/01/23 02:20:11;;;;;;;15.05;8.02;;;2.70;99.90;;;;;;5111395;27;20047;-89
2023/01/23 02:23:03;;;;;;;16.75;8.35;;;2.70;99.90;;;;;;5110118;27;20047;-90
2023/01/23 02:25:50;;;;;;;17.98;8.52;;;2.70;99.90;;;;;;5111204;28;20052;-89
2023/01/23 02:28:16;;;;;;;17.08;8.75;;;2.70;99.90;;;;;;5109137;27;20106;-89
2023/01/23 02:30:45;;;;;;;17.45;8.60;;;2.70;99.90;;;;;;5129504;27;20043;-89
2023/01/23 02:33:21;;;;;;;16.75;8.52;;;2.70;99.90;;;;;;5109795;27;20063;-89
2023/01/23 02:35:47;;;;;;;14.10;8.00;;;2.70;99.90;;;;;;5123892;27;20035;-89
2023/01/23 02:38:13;;;;;;;14.93;8.52;;;2.80;99.90;;;;;;5127634;28;20059;-90
2023/01/23 02:40:41;;;;;;;17.08;8.27;;;2.80;99.90;;;;;;5129933;28;20063;-89
2023/01/23 02:43:12;;;;;;;17.52;8.23;;;2.80;99.90;;;;;;5129022;28;20081;-90
2023/01/23 02:45:38;;;;;;;15.30;7.10;;;2.80;99.90;;;;;;5124372;28;20087;-87
2023/01/23 02:48:05;;;;;;;15.90;7.80;;;2.80;99.90;;;;;;5109626;28;20053;-87
2023/01/23 02:50:31;;;;;;;17.40;7.47;;;2.80;99.90;;;;;;5109147;28;20054;-88
2023/01/23 02:52:57;;;;;;;17.05;8.70;;;2.80;99.90;;;;;;5109919;28;20118;-88
2023/01/23 02:55:25;;;;;;;18.15;8.75;;;2.80;99.90;;;;;;5108972;28;20043;-88
2023/01/23 02:57:51;;;;;;;15.43;9.00;;;2.80;99.90;;;;;;5109828;28;20050;-87
2023/01/23 03:00:21;;;;;;;15.75;8.70;;;2.80;99.90;;;;;;5109964;28;20061;-88
2023/01/23 03:02:48;;;;;;;16.52;8.77;;;2.80;99.90;;;;;;5128828;28;20031;-89
2023/01/23 03:05:14;;;;;;;16.42;7.75;;;2.80;99.90;;;;;;5108612;28;20444;-88
2023/01/23 03:07:41;;;;;;;15.90;8.38;;;2.80;99.90;;;;;;5109797;28;20043;-88
2023/01/23 03:10:08;;;;;;;15.52;7.78;;;2.80;99.90;;;;;;5129434;28;20084;-87
2023/01/23 03:12:34;;;;;;;13.30;7.80;;;2.80;99.90;;;;;;5107847;28;20059;-88
2023/01/23 03:15:00;;;;;;;15.20;8.10;;;2.80;99.90;;;;;;5109737;28;20043;-87
2023/01/23 03:17:27;;;;;;;15.32;8.23;;;2.80;99.90;;;;;;5110599;28;20043;-89
2023/01/23 03:19:54;;;;;;;16.50;8.32;;;2.80;99.90;;;;;;5129393;28;20138;-88
2023/01/23 03:22:20;;;;;;;14.85;7.63;;;2.80;99.90;;;;;;5106274;28;20043;-88
2023/01/23 03:24:45;;;;;;;14.93;7.45;;;2.80;99.90;;;;;;5109906;28;20044;-88
2023/01/23 03:27:11;;;;;;;14.80;7.25;;;2.80;99.90;;;;;;5128764;27;20384;-88
2023/01/23 03:32:21;;;;;;;15.65;8.18;;;2.80;99.90;;;;;;5113617;27;20089;-88
2023/01/23 03:34:47;;;;;;;16.92;8.70;;;2.80;99.90;;;;;;5130870;27;20074;-88
2023/01/23 03:37:14;;;;;;;15.63;7.78;;;2.80;99.90;;;;;;5114994;27;20046;-88
2023/01/23 03:42:24;;;;;;;15.60;8.68;;;2.80;99.90;;;;;;5112137;27;20107;-88
2023/01/23 03:44:51;;;;;;;15.25;7.85;;;2.80;99.90;;;;;;5097522;27;20440;-89
2023/01/23 03:47:17;;;;;;;12.73;7.18;;;2.80;99.90;;;;;;5113354;27;20127;-89
2023/01/23 03:49:42;;;;;;;15.73;8.00;;;2.80;99.90;;;;;;5115630;27;20178;-88
2023/01/23 03:52:08;;;;;;;16.30;9.00;;;2.80;99.90;;;;;;5132990;27;20043;-89
2023/01/23 03:54:34;;;;;;;13.85;7.55;;;2.80;99.90;;;;;;5132166;27;20034;-89
2023/01/23 03:56:59;;;;;;;15.57;8.93;;;2.80;99.90;;;;;;5114411;27;20407;-88
2023/01/23 03:59:25;;;;;;;15.75;8.45;;;2.80;99.90;;;;;;5132062;27;20031;-88
2023/01/23 04:01:50;;;;;;;17.30;8.13;;;2.80;99.90;;;;;;5133060;27;20061;-89
2023/01/23 04:04:16;;;;;;;16.25;8.40;;;2.80;99.90;;;;;;5129410;27;20566;-88
2023/01/23 04:06:42;;;;;;;15.32;8.07;;;2.80;99.90;;;;;;5115176;27;20403;-88
2023/01/23 04:09:09;;;;;;;18.75;9.25;;;2.80;99.90;;;;;;5116397;27;20198;-88
2023/01/23 04:11:34;;;;;;;17.45;8.80;;;2.80;99.90;;;;;;5121099;27;20035;-88
2023/01/23 04:14:00;;;;;;;15.90;8.23;;;2.80;99.90;;;;;;5142756;27;20248;-89
2023/01/23 04:16:27;;;;;;;14.52;8.30;;;2.80;99.90;;;;;;5138003;27;20043;-89
2023/01/23 04:18:53;;;;;;;16.30;9.02;;;2.80;99.90;;;;;;5131636;27;20031;-88
2023/01/23 04:21:19;;;;;;;15.18;8.75;;;2.80;99.90;;;;;;5117776;27;20444;-89
2023/01/23 04:23:45;;;;;;;15.45;8.40;;;2.80;99.90;;;;;;5120577;27;20055;-89
2023/01/23 04:26:11;;;;;;;15.95;8.68;;;2.80;99.90;;;;;;5102524;28;20055;-89
2023/01/23 04:28:37;;;;;;;16.45;7.93;;;2.80;99.90;;;;;;5115824;28;20051;-90
2023/01/23 04:31:03;;;;;;;15.77;8.18;;;2.80;99.90;;;;;;5099293;28;20757;-87
2023/01/23 04:33:29;;;;;;;16.55;8.35;;;2.80;99.90;;;;;;5116579;28;20088;-88
2023/01/23 04:35:59;;;;;;;17.05;8.77;;;2.80;99.90;;;;;;5121161;28;20051;-87
2023/01/23 04:38:26;;;;;;;14.20;8.70;;;2.80;99.90;;;;;;5120975;28;20063;-88
2023/01/23 04:40:52;;;;;;;15.35;8.45;;;2.80;99.90;;;;;;5123690;28;20039;-87
2023/01/23 04:43:18;;;;;;;17.30;8.43;;;2.80;99.90;;;;;;5125095;27;20035;-89
2023/01/23 04:45:44;;;;;;;14.93;8.35;;;2.80;99.90;;;;;;5122234;28;20048;-88
2023/01/23 04:48:11;;;;;;;15.18;8.85;;;2.80;99.90;;;;;;5116824;28;20039;-88
2023/01/23 04:50:36;;;;;;;16.75;8.57;;;2.80;99.90;;;;;;5121583;28;20103;-89
2023/01/23 04:53:03;;;;;;;16.83;8.18;;;2.80;99.90;;;;;;5124134;28;20360;-88
2023/01/23 04:55:28;;;;;;;16.17;7.93;;;2.80;99.90;;;;;;5118860;28;20035;-89
2023/01/23 04:57:54;;;;;;;18.52;9.57;;;2.80;99.90;;;;;;5114483;28;20058;-87
2023/01/23 05:00:20;;;;;;;15.70;8.73;;;2.80;99.90;;;;;;5113414;28;20111;-88
2023/01/23 05:02:47;;;;;;;15.73;7.88;;;2.80;99.90;;;;;;5115259;28;20384;-89
2023/01/23 05:05:13;;;;;;;15.52;7.53;;;2.90;99.90;;;;;;5115122;28;20046;-89
2023/01/23 05:07:39;;;;;;;16.90;8.30;;;2.80;99.90;;;;;;5116830;28;20052;-89
2023/01/23 05:10:05;;;;;;;16.27;8.23;;;2.80;99.90;;;;;;5119315;28;20040;-88
2023/01/23 05:12:31;;;;;;;15.85;7.88;;;2.80;99.90;;;;;;5118803;28;20051;-88
2023/01/23 05:14:57;;;;;;;16.15;8.75;;;2.80;99.90;;;;;;5119893;28;20040;-88
2023/01/23 05:17:22;;;;;;;16.30;8.77;;;2.80;99.90;;;;;;5117529;28;20109;-88
2023/01/23 05:19:48;;;;;;;16.45;9.15;;;2.80;99.90;;;;;;5126048;28;20052;-88
2023/01/23 05:22:14;;;;;;;22.33;9.55;;;2.80;99.90;;;;;;5123404;28;20041;-88
2023/01/23 05:24:39;;;;;;;16.33;8.13;;;2.80;99.90;;;;;;5125807;27;20047;-87
2023/01/23 05:27:05;;;;;;;16.90;8.77;;;2.80;99.90;;;;;;5112405;27;20122;-88
2023/01/23 05:29:30;;;;;;;14.48;8.38;;;2.80;99.90;;;;;;5110134;27;20039;-88
2023/01/23 05:31:56;;;;;;;16.83;9.65;;;2.80;99.90;;;;;;5111636;27;20114;-88
2023/01/23 05:34:22;;;;;;;16.60;9.13;;;2.80;99.90;;;;;;5125766;27;20084;-88
2023/01/23 05:36:47;;;;;;;19.40;9.57;;;2.80;99.90;;;;;;5127424;27;20035;-88
2023/01/23 05:39:13;;;;;;;17.73;9.10;;;2.80;99.90;;;;;;5111349;27;20137;-88
2023/01/23 05:41:39;;;;;;;14.10;9.00;;;2.80;99.90;;;;;;5130157;27;20181;-88
2023/01/23 05:44:04;;;;;;;16.92;8.90;;;2.80;99.90;;;;;;5111296;27;20043;-88
2023/01/23 05:46:30;;;;;;;16.80;9.55;;;2.80;99.90;;;;;;5129527;27;20039;-88
2023/01/23 05:48:56;;;;;;;17.42;9.15;;;2.80;99.90;;;;;;5127111;27;20217;-87
2023/01/23 05:51:22;;;;;;;19.20;8.77;;;2.80;99.90;;;;;;5093840;27;20586;-88
2023/01/23 05:53:48;;;;;;;15.90;8.48;;;2.80;99.90;;;;;;5110676;27;20157;-87
2023/01/23 05:56:15;;;;;;;17.63;10.02;;;2.80;99.90;;;;;;5127675;27;20103;-88
2023/01/23 05:58:40;;;;;;;19.40;9.10;;;2.80;99.90;;;;;;5129531;27;20376;-88
2023/01/23 06:01:06;;;;;;;17.92;9.45;;;2.80;99.90;;;;;;5110320;27;20046;-88
2023/01/23 06:03:32;;;;;;;18.48;9.13;;;2.80;99.90;;;;;;5129823;27;20183;-87
2023/01/23 06:06:00;;;;;;;17.77;8.80;;;2.80;99.90;;;;;;5129215;27;20050;-88
2023/01/23 06:08:26;;;;;;;21.45;9.07;;;2.80;99.90;;;;;;5110582;27;20047;-87
2023/01/23 06:10:52;;;;;;;15.30;8.48;;;2.80;99.90;;;;;;5107596;27;20043;-88
2023/01/23 06:13:17;;;;;;;15.82;8.88;;;2.80;99.90;;;;;;5111596;27;20039;-88
2023/01/23 06:15:43;;;;;;;15.77;8.15;;;2.80;99.90;;;;;;5133900;27;20050;-89
2023/01/23 06:18:09;;;;;;;17.60;8.27;;;2.80;99.90;;;;;;5132923;27;20027;-94
2023/01/23 06:20:34;;;;;;;16.50;8.35;;;2.80;99.90;;;;;;5135348;27;20035;-89
2023/01/23 06:23:00;;;;;;;16.77;9.07;;;2.80;99.90;;;;;;5130373;27;20395;-88
2023/01/23 06:25:25;;;;;;;16.48;8.05;;;2.80;99.90;;;;;;5109914;28;20047;-89
2023/01/23 06:27:51;;;;;;;14.98;7.82;;;2.80;99.90;;;;;;5110729;27;20039;-88
2023/01/23 06:30:17;;;;;;;15.52;8.77;;;2.80;99.90;;;;;;5128056;27;20039;-89
2023/01/23 06:32:43;;;;;;;16.90;8.60;;;2.80;99.90;;;;;;5130547;27;20449;-91
2023/01/23 06:35:09;;;;;;;15.52;8.82;;;2.80;99.90;;;;;;5110614;27;20031;-90
2023/01/23 06:37:34;;;;;;;16.77;8.32;;;2.80;99.90;;;;;;5130627;27;20051;-88
2023/01/23 06:40:00;;;;;;;16.27;8.00;;;2.80;99.90;;;;;;5109847;28;20420;-88
2023/01/23 06:42:25;;;;;;;18.48;8.85;;;2.80;99.90;;;;;;5110093;28;20043;-87
2023/01/23 06:44:51;;;;;;;16.02;8.20;;;2.80;99.90;;;;;;5125173;27;20042;-88
2023/01/23 06:47:18;;;;;;;16.30;7.55;;;2.80;99.90;;;;;;5104018;27;20035;-88
2023/01/23 06:49:44;;;;;;;15.40;7.80;;;2.80;99.90;;;;;;5112612;28;20055;-89
2023/01/23 06:52:09;;;;;;;14.13;7.80;;;2.80;99.90;;;;;;5129753;28;20039;-86
2023/01/23 06:54:35;;;;;;;17.30;8.60;;;2.80;99.90;;;;;;5092789;28;20045;-88
2023/01/23 06:57:00;;;;;;;16.33;8.43;;;2.80;99.90;;;;;;5110757;28;20050;-88
2023/01/23 06:59:26;;;;;;;14.75;7.93;;;2.80;99.90;;;;;;5110281;28;20080;-87
2023/01/23 07:01:52;;;;;;;13.38;8.10;;;2.80;99.90;;;;;;5092179;27;20232;-86
2023/01/23 07:04:17;;;;;;;15.68;7.57;;;2.80;99.90;;;;;;5138749;27;20045;-89
2023/01/23 07:06:43;;;;;;;16.83;8.63;;;2.80;99.90;;;;;;5133083;27;20084;-88
2023/01/23 07:09:09;;;;;;;16.55;9.15;;;2.80;99.90;;;;;;5134497;27;20070;-92
2023/01/23 07:11:36;;;;;;;16.60;8.95;;;2.80;99.90;;;;;;5097818;27;20124;-87
2023/01/23 07:14:03;;;;;;;18.08;9.20;;;2.80;99.90;;;;;;5115104;27;20035;-89
2023/01/23 07:16:28;;;;;;;16.67;8.55;;;2.80;99.90;;;;;;5134924;27;20043;-88
2023/01/23 07:18:57;;;;;;;16.90;9.10;;;2.80;99.90;;;;;;5133319;27;20039;-89
2023/01/23 07:21:23;;;;;;;16.30;8.23;;;2.80;99.90;;;;;;5125468;27;20053;-89
2023/01/23 07:23:49;;;;;;;17.20;8.27;;;2.80;99.90;;;;;;5110146;27;20055;-91
2023/01/23 07:26:15;;;;;;;15.70;8.05;;;2.80;99.90;;;;;;5122449;27;20067;-87
2023/01/23 07:28:41;;;;;;;16.17;7.90;;;2.80;99.90;;;;;;5124892;27;20512;-89
2023/01/23 07:31:06;;;;;;;17.45;8.45;;;2.80;99.90;;;;;;5110090;27;20047;-90
2023/01/23 07:33:32;;;;;;;15.25;8.63;;;2.80;99.90;;;;;;5109081;27;20066;-90
2023/01/23 07:35:57;;;;;;;14.45;8.10;;;2.80;99.90;;;;;;5098205;27;20031;-85
2023/01/23 07:38:24;;;;;;;17.75;8.85;;;2.80;99.90;;;;;;5113380;27;20031;-92
2023/01/23 07:40:50;;;;;;;18.45;8.90;;;2.80;99.90;;;;;;5116995;27;20099;-92
2023/01/23 07:43:16;;;;;;;16.40;8.98;;;2.80;99.90;;;;;;5120219;27;20027;-92
2023/01/23 07:45:42;;;;;;;16.65;8.27;;;2.80;99.90;;;;;;5112839;27;20039;-88
2023/01/23 07:48:08;;;;;;;15.80;8.25;;;2.90;99.90;;;;;;5121233;27;20058;-89
2023/01/23 07:50:34;;;;;;;16.60;8.68;;;2.90;99.90;;;;;;5109041;27;20100;-86
2023/01/23 07:53:02;;;;;;;15.23;8.75;;;2.80;99.90;;;;;;5093574;27;20034;-90
2023/01/23 07:55:27;;;;;;;15.90;7.70;;;2.90;99.90;;;;;;5122844;27;20039;-88
2023/01/23 07:57:56;;;;;;;15.68;8.65;;;2.80;99.90;;;;;;5110713;27;20118;-86
2023/01/23 08:00:22;;;;;;;15.85;8.80;;;2.80;99.90;;;;;;5111523;27;20502;-86
2023/01/23 08:02:48;;;;;;;19.20;8.93;;;2.80;99.90;;;;;;5109794;27;20387;-86
2023/01/23 08:05:13;;;;;;;14.73;8.63;;;2.80;99.90;;;;;;5115022;27;20047;-86
2023/01/23 08:07:39;;;;;;;15.85;8.77;;;2.90;99.90;;;;;;5114872;27;20058;-84
2023/01/23 08:10:06;;;;;;;17.15;8.98;;;2.90;99.90;;;;;;5111468;27;20031;-88
2023/01/23 08:12:31;;;;;;;17.52;8.40;;;2.90;99.90;;;;;;5109256;27;20043;-87
2023/01/23 08:14:57;;;;;;;16.42;7.93;;;2.90;99.90;;;;;;5108335;27;20108;-86
2023/01/23 08:17:23;;;;;;;17.95;8.95;;;2.90;99.90;;;;;;5106839;27;22261;-86
2023/01/23 08:19:48;;;;;;;17.13;9.23;;;2.90;99.90;;;;;;5139476;27;20027;-87
2023/01/23 08:22:14;;;;;;;14.55;7.72;;;2.90;99.90;;;;;;5108009;27;20039;-87
2023/01/23 08:24:40;;;;;;;17.13;9.20;;;2.90;99.90;;;;;;5128977;27;20051;-86
2023/01/23 08:27:06;;;;;;;16.25;8.65;;;2.90;99.90;;;;;;5126183;27;20050;-87
2023/01/23 08:29:32;;;;;;;18.98;9.05;;;2.90;99.90;;;;;;5108515;27;20521;-88
2023/01/23 08:31:58;;;;;;;15.18;8.57;;;2.90;99.90;;;;;;5131695;27;20031;-86
2023/01/23 08:34:24;;;;;;;17.95;8.95;;;3.00;99.90;;;;;;5128367;27;20127;-86
2023/01/23 08:36:50;;;;;;;15.73;8.30;;;3.00;99.90;;;;;;5128145;27;20495;-86
2023/01/23 08:39:16;;;;;;;15.27;8.77;;;3.00;99.90;;;;;;5128319;27;20099;-86
2023/01/23 08:41:42;;;;;;;17.20;8.73;;;3.00;99.90;;;;;;5108567;27;20100;-88
2023/01/23 08:44:08;;;;;;;16.70;10.13;;;3.00;99.90;;;;;;5110790;27;20510;-88
2023/01/23 08:46:33;;;;;;;17.58;9.30;;;3.00;99.90;;;;;;5130513;27;20123;-89
2023/01/23 08:48:59;;;;;;;14.63;8.80;;;3.10;99.90;;;;;;5129007;27;20532;-88
2023/01/23 08:51:26;;;;;;;16.77;8.18;;;3.10;99.90;;;;;;5106659;27;20035;-88
2023/01/23 08:53:52;;;;;;;16.30;8.13;;;3.10;99.90;;;;;;5124587;27;20398;-88
2023/01/23 08:56:20;;;;;;;15.02;7.93;;;3.10;99.90;;;;;;5101454;27;20031;-89
2023/01/23 08:58:46;;;;;;;13.57;8.23;;;3.10;99.90;;;;;;5139272;27;20038;-85
2023/01/23 09:01:14;;;;;;;15.32;7.55;;;3.20;99.90;;;;;;5139143;27;20152;-85
2023/01/23 09:03:40;;;;;;;13.57;7.65;;;3.20;99.90;;;;;;5115156;27;20131;-87
2023/01/23 09:06:06;;;;;;;14.52;9.10;;;3.20;99.90;;;;;;5105823;27;20138;-86
2023/01/23 09:08:33;;;;;;;15.05;8.40;;;3.30;99.90;;;;;;5109348;27;20443;-84
2023/01/23 09:11:02;;;;;;;13.25;7.22;;;3.30;99.90;;;;;;5126254;27;20089;-83
2023/01/23 09:13:28;;;;;;;12.75;7.45;;;3.40;99.90;;;;;;5130916;27;20415;-83
2023/01/23 09:15:54;;;;;;;15.57;8.40;;;3.40;99.90;;;;;;5110618;27;20039;-84
2023/01/23 09:18:21;;;;;;;13.82;7.88;;;3.40;99.90;;;;;;5131361;27;20029;-83
2023/01/23 09:20:48;;;;;;;13.65;7.40;;;3.40;99.90;;;;;;5109675;27;20156;-81
2023/01/23 09:23:14;;;;;;;13.50;7.18;;;3.50;99.90;;;;;;5109669;27;20427;-82
2023/01/23 09:25:39;;;;;;;14.63;7.20;;;3.50;99.90;;;;;;5106254;27;20395;-82
2023/01/23 09:28:05;;;;;;;13.32;7.00;;;3.50;99.90;;;;;;5109284;27;20046;-81
2023/01/23 09:30:31;;;;;;;12.10;7.30;;;3.50;99.90;;;;;;5110693;27;20039;-81
2023/01/23 09:32:56;;;;;;;13.05;7.03;;;3.60;99.90;;;;;;5109899;27;20341;-82
2023/01/23 09:35:22;;;;;;;13.02;6.88;;;3.60;99.90;;;;;;5128897;27;20126;-85
2023/01/23 09:38:01;;;;;;;14.68;7.53;;;3.60;99.90;;;;;;5109148;27;20062;-83
2023/01/23 09:40:34;;;;;;;13.10;7.03;;;3.60;99.90;;;;;;5107864;27;20043;-84
2023/01/23 09:43:32;;;;;;;15.43;7.75;;;3.70;99.90;;;;;;5107543;27;20088;-86
2023/01/23 09:46:09;;;;;;;12.70;6.85;;;3.70;99.90;;;;;;5022013;28;20049;-85
2023/01/23 09:49:10;;;;;;;14.18;7.43;;;3.70;99.90;;;;;;5041091;28;20053;-86
2023/01/23 09:51:36;;;;;;;12.93;6.63;;;3.70;99.90;;;;;;4971304;28;20045;-87
2023/01/23 09:54:13;;;;;;;14.35;7.18;;;3.70;99.90;;;;;;4980936;28;20423;-86
2023/01/23 09:56:44;;;;;;;14.77;6.90;;;3.70;99.90;;;;;;4959587;28;20177;-87
2023/01/23 09:59:09;;;;;;;11.93;6.10;;;3.70;99.90;;;;;;4950363;28;20051;-87
2023/01/23 10:01:35;;;;;;;12.70;6.60;;;3.80;99.90;;;;;;4958114;28;20058;-87
2023/01/23 10:04:03;;;;;;;12.30;6.63;;;3.80;99.90;;;;;;4977523;28;20917;-87
2023/01/23 10:06:44;;;;;;;12.60;7.05;;;3.80;99.90;;;;;;4970338;28;20105;-87
2023/01/23 10:09:27;;;;;;;12.27;7.72;;;3.80;99.90;;;;;;4962147;28;20545;-87
2023/01/23 10:12:41;;;;;;;12.10;7.45;;;3.90;99.90;;;;;;4974230;28;20061;-87
2023/01/23 10:15:33;;;;;;;12.70;7.05;;;3.90;99.90;;;;;;4939682;28;20073;-87
2023/01/23 10:18:22;;;;;;;12.10;7.18;;;3.90;99.90;;;;;;4969821;28;20126;-87
2023/01/23 10:21:03;;;;;;;12.07;6.28;;;3.80;99.90;;;;;;4972787;28;20159;-87
2023/01/23 10:24:10;;;;;;;12.30;6.20;;;3.90;99.90;;;;;;5014434;28;20065;-87
2023/01/23 10:26:41;;;;;;;11.48;6.57;;;3.90;99.90;;;;;;5019010;28;20287;-85
2023/01/23 10:29:26;;;;;;;10.80;6.18;;;3.90;99.90;;;;;;5060187;28;20059;-92
2023/01/23 10:32:00;;;;;;;11.25;6.10;;;3.90;99.90;;;;;;5035082;28;20438;-89
2023/01/23 10:34:36;;;;;;;11.63;6.15;;;3.90;99.90;;;;;;5046415;28;20048;-87
2023/01/23 10:37:34;;;;;;;12.93;7.05;;;3.90;99.90;;;;;;5059008;28;20068;-88
2023/01/23 10:40:09;;;;;;;11.60;5.70;;;3.90;99.90;;;;;;5028349;28;20043;-87
2023/01/23 10:42:35;;;;;;;12.85;6.57;;;3.90;99.90;;;;;;5029419;28;20049;-88
2023/01/23 10:45:01;;;;;;;11.75;6.80;;;3.90;99.90;;;;;;5028484;28;20126;-89
2023/01/23 10:47:43;;;;;;;12.63;6.75;;;3.90;99.90;;;;;;5042578;28;20124;-91
2023/01/23 10:50:10;;;;;;;13.30;6.20;;;3.90;99.90;;;;;;5031342;28;20114;-90
2023/01/23 10:52:45;;;;;;;11.52;6.15;;;4.00;99.90;;;;;;5024020;28;20048;-87
2023/01/23 10:55:18;;;;;;;10.60;5.30;;;4.00;99.90;;;;;;5022493;28;20121;-86
2023/01/23 10:57:47;;;;;;;13.27;10.48;;;4.00;99.90;;;;;;5021265;28;20049;-85
2023/01/23 11:00:51;;;;;;;10.05;6.13;;;4.00;99.90;;;;;;5054116;28;20056;-87
2023/01/23 11:03:25;;;;;;;10.57;5.35;;;4.00;99.90;;;;;;5049202;27;20126;-87
2023/01/23 11:05:54;;;;;;;10.90;6.10;;;4.00;99.90;;;;;;5102104;27;20118;-84
2023/01/23 11:08:37;;;;;;;11.73;6.55;;;4.00;99.90;;;;;;5107041;27;20027;-84
2023/01/23 11:11:15;;;;;;;12.40;6.60;;;3.90;99.90;;;;;;5102111;27;20031;-83
2023/01/23 11:13:46;;;;;;;11.88;6.70;;;3.90;99.90;;;;;;5098690;27;20495;-84
2023/01/23 11:16:18;;;;;;;11.73;6.60;;;3.90;99.90;;;;;;5106295;28;20070;-85
2023/01/23 11:18:55;;;;;;;13.07;6.63;;;4.00;99.90;;;;;;5123182;27;20036;-83
2023/01/23 11:21:26;;;;;;;11.90;5.95;;;4.00;99.90;;;;;;5126858;27;20123;-84
2023/01/23 11:24:08;;;;;;;11.65;7.47;;;4.00;99.90;;;;;;5125962;27;20100;-87
2023/01/23 11:26:34;;;;;;;;;;;4.10;99.90;;;;;;5126395;27;20395;-84
2023/01/23 11:29:00;;;;;;;15.60;6.70;;;4.10;99.90;;;;;;5105214;28;19922;-83
2023/01/23 11:31:27;;;;;;;12.10;6.30;;;4.10;99.90;;;;;;5103812;27;20039;-86
2023/01/23 11:34:23;;;;;;;12.60;7.18;;;4.10;99.90;;;;;;5137441;27;20035;-86
2023/01/23 11:37:05;;;;;;;12.48;7.40;;;4.10;99.90;;;;;;5123126;27;20108;-85
2023/01/23 11:39:56;;;;;;;12.35;6.13;;;4.10;99.90;;;;;;5147627;27;20227;-87
2023/01/23 11:42:25;;;;;;;14.35;8.23;;;4.20;99.90;;;;;;5104701;28;20185;-85
2023/01/23 11:44:51;;;;;;;11.75;6.88;;;4.10;99.90;;;;;;5118497;28;20038;-88
2023/01/23 11:47:49;;;;;;;12.88;7.72;;;4.10;99.90;;;;;;5149074;27;20043;-87
2023/01/23 11:50:27;;;;;;;12.60;7.78;;;4.20;99.90;;;;;;5151075;27;20027;-88
2023/01/23 11:52:53;;;;;;;11.93;7.18;;;4.20;99.90;;;;;;5130290;27;20043;-87
2023/01/23 11:55:43;;;;;;;12.18;7.25;;;4.20;99.90;;;;;;5132811;27;20064;-88
2023/01/23 11:58:50;;;;;;;12.57;6.15;;;4.10;99.90;;;;;;5143296;27;20054;-88
2023/01/23 12:01:22;;;;;;;12.48;7.78;;;4.10;99.90;;;;;;5140493;27;20039;-88
2023/01/23 12:04:13;;;;;;;13.57;8.13;;;4.10;99.90;;;;;;5134798;27;20494;-89
2023/01/23 12:06:44;;;;;;;13.93;7.10;;;4.10;99.90;;;;;;5115821;27;20369;-89
2023/01/23 12:09:15;;;;;;;13.50;6.85;;;4.20;99.90;;;;;;5099421;27;20038;-89
2023/01/23 12:12:14;;;;;;;12.35;7.03;;;4.20;99.90;;;;;;5132894;27;20047;-89
2023/01/23 12:15:03;;;;;;;13.57;7.75;;;4.20;99.90;;;;;;5133694;27;20035;-88
2023/01/23 12:17:55;;;;;;;14.60;8.63;;;4.30;99.90;;;;;;5118423;27;20051;-87
2023/01/23 12:20:53;;;;;;;13.60;8.32;;;4.40;99.90;;;;;;5131135;27;20077;-90
2023/01/23 12:23:28;;;;;;;12.70;6.85;;;4.40;99.90;;;;;;5112297;27;20545;-89
2023/01/23 12:26:10;;;;;;;13.98;11.98;;;4.50;99.90;;;;;;5116650;27;20094;-92
2023/01/23 12:28:44;;;;;;;13.30;7.32;;;4.50;99.90;;;;;;5113022;27;20041;-90
2023/01/23 12:31:29;;;;;;;14.02;7.13;;;4.50;99.90;;;;;;5112593;27;20496;-89
2023/01/23 12:34:18;;;;;;;13.35;7.90;;;4.60;99.90;;;;;;5126149;27;20886;-87
2023/01/23 12:37:09;;;;;;;13.23;6.78;;;4.60;99.90;;;;;;5108143;27;20043;-87
2023/01/23 12:39:57;;;;;;;12.90;7.35;;;4.60;99.90;;;;;;5109726;27;20050;-87
2023/01/23 12:42:46;;;;;;;11.93;7.82;;;4.60;99.90;;;;;;5110761;27;20551;-87
2023/01/23 12:45:23;;;;;;;12.95;6.97;;;4.60;99.90;;;;;;5088326;27;20064;-86
2023/01/23 12:48:01;;;;;;;13.65;7.70;;;4.60;99.90;;;;;;5113690;27;20031;-86
2023/01/23 12:50:45;;;;;;;15.23;8.93;;;4.50;99.90;;;;;;5125677;27;20035;-87
2023/01/23 12:53:12;;;;;;;14.63;7.32;;;4.50;99.90;;;;;;5109909;27;20043;-87
2023/01/23 12:55:54;;;;;;;13.70;8.07;;;4.50;99.90;;;;;;5108281;27;20077;-86
2023/01/23 12:58:22;;;;;;;12.88;9.02;;;4.50;99.90;;;;;;5128348;27;20039;-87
2023/01/23 13:01:05;;;;;;;14.13;8.98;;;4.50;99.90;;;;;;5111320;27;20054;-88
2023/01/23 13:03:59;;;;;;;14.40;12.45;;;4.50;99.90;;;;;;5112238;27;20089;-87
2023/01/23 13:06:57;;;;;;;12.82;8.13;;;4.50;99.90;;;;;;5129436;27;20039;-88
2023/01/23 13:09:44;;;;;;;14.50;7.72;;;4.60;99.90;;;;;;5120223;27;20050;-87